Time;durP1;ratioP1;P1;durP2;ratioP2;P2;SDS_P1;SDS_P2;PMS_P1;PMS_P2;Temp;Humidity;BMP_temperature;BMP_pressure;BME280_temperature;BME280_humidity;BME280_pressure;Samples;Min_cycle;Max_cycle;Signal;HPM_P1;HPM_P2
2023/01/19 05:38:53;;;;;;;42.20;21.40;;;-1.80;99.90;;;;;;7590647;19;20361;-72
2023/01/19 05:41:25;;;;;;;39.45;19.55;;;-1.90;99.90;;;;;;7604604;19;20014;-73
2023/01/19 05:43:57;;;;;;;51.40;22.35;;;-1.80;99.90;;;;;;7620949;19;20026;-71
2023/01/19 05:46:29;;;;;;;49.58;23.55;;;-1.70;99.90;;;;;;7609186;19;20010;-72
2023/01/19 05:49:03;;;;;;;43.47;21.90;;;-1.60;99.90;;;;;;7617140;19;20022;-70
2023/01/19 05:51:37;;;;;;;48.17;23.45;;;-1.60;99.90;;;;;;7608308;19;20609;-71
2023/01/19 05:54:10;;;;;;;47.90;21.38;;;-1.60;99.90;;;;;;7582359;19;20057;-70
2023/01/19 05:56:42;;;;;;;43.08;21.10;;;-1.40;99.90;;;;;;7616661;19;20018;-72
2023/01/19 05:59:16;;;;;;;43.15;21.45;;;-1.40;99.90;;;;;;7608472;19;20039;-71
2023/01/19 06:01:52;;;;;;;45.65;21.83;;;-1.40;99.90;;;;;;7603249;19;20018;-72
2023/01/19 06:04:25;;;;;;;43.17;20.40;;;-1.30;99.90;;;;;;7578332;19;20099;-71
2023/01/19 06:06:57;;;;;;;38.63;20.25;;;-1.30;99.90;;;;;;7577610;19;20910;-72
2023/01/19 06:09:29;;;;;;;41.03;20.75;;;-1.30;99.90;;;;;;7587180;19;20412;-71
2023/01/19 06:12:01;;;;;;;42.08;21.35;;;-1.20;99.90;;;;;;7598135;19;20014;-72
2023/01/19 06:14:35;;;;;;;40.08;19.90;;;-1.20;99.90;;;;;;7580663;19;20018;-72
2023/01/19 06:17:08;;;;;;;38.25;19.48;;;-1.20;99.90;;;;;;7588865;19;20233;-72
2023/01/19 06:19:40;;;;;;;39.35;21.95;;;-1.20;99.90;;;;;;7592400;19;20022;-71
2023/01/19 06:22:12;;;;;;;46.20;22.20;;;-1.30;99.90;;;;;;7610956;19;20025;-71
2023/01/19 06:24:44;;;;;;;43.00;22.70;;;-1.30;99.90;;;;;;7588795;19;20014;-71
2023/01/19 06:27:16;;;;;;;50.47;23.00;;;-1.30;99.90;;;;;;7602360;19;20018;-75
2023/01/19 06:29:49;;;;;;;41.88;21.05;;;-1.30;99.90;;;;;;7602518;19;20113;-70
2023/01/19 06:32:21;;;;;;;47.28;22.45;;;-1.30;99.90;;;;;;7562782;19;20094;-72
2023/01/19 06:34:53;;;;;;;46.45;22.20;;;-1.30;99.90;;;;;;7585971;19;20010;-71
2023/01/19 06:37:27;;;;;;;43.50;22.13;;;-1.40;99.90;;;;;;7593779;19;20018;-73
2023/01/19 06:39:59;;;;;;;;;;;-1.30;99.90;;;;;;7614809;19;20054;-73
2023/01/19 06:42:31;;;;;;;43.63;21.73;;;-1.30;99.90;;;;;;7597988;19;19929;-72
2023/01/19 06:45:04;;;;;;;46.72;24.02;;;-1.20;99.90;;;;;;7623356;19;20025;-74
2023/01/19 06:47:36;;;;;;;51.47;22.90;;;-1.20;99.90;;;;;;7615661;19;20014;-70
2023/01/19 06:50:09;;;;;;;47.72;23.25;;;-1.30;99.90;;;;;;7579073;19;20022;-70
2023/01/19 06:52:41;;;;;;;49.38;25.75;;;-1.30;99.90;;;;;;7576861;19;20021;-71
2023/01/19 06:55:15;;;;;;;53.45;25.85;;;-1.30;99.90;;;;;;7569706;19;20018;-71
2023/01/19 06:57:47;;;;;;;55.38;25.92;;;-1.30;99.90;;;;;;7592330;19;20010;-72
2023/01/19 07:00:20;;;;;;;49.97;24.13;;;-1.30;99.90;;;;;;7592847;19;20021;-74
2023/01/19 07:02:52;;;;;;;46.60;23.45;;;-1.20;99.90;;;;;;7593157;19;20624;-73
2023/01/19 07:05:25;;;;;;;57.40;25.05;;;-1.30;99.90;;;;;;7602615;19;20011;-72
2023/01/19 07:07:58;;;;;;;58.00;28.52;;;-1.40;99.90;;;;;;7605693;19;21487;-71
2023/01/19 07:10:30;;;;;;;48.30;24.92;;;-1.30;99.90;;;;;;7594514;19;20060;-73
2023/01/19 07:13:22;;;;;;;51.17;24.73;;;-1.30;99.90;;;;;;7598959;19;20022;-73
2023/01/19 07:15:55;;;;;;;62.08;26.98;;;-1.30;99.90;;;;;;7590585;19;20023;-72
2023/01/19 07:18:27;;;;;;;56.47;24.95;;;-1.30;99.90;;;;;;7576071;19;20115;-70
2023/01/19 07:20:59;;;;;;;44.97;21.95;;;-1.30;99.90;;;;;;7597496;19;21466;-70
2023/01/19 07:23:32;;;;;;;48.72;22.35;;;-1.30;99.90;;;;;;7529510;19;20564;-70
2023/01/19 07:26:04;;;;;;;41.83;21.02;;;-1.30;99.90;;;;;;7558208;19;20007;-72
2023/01/19 07:28:37;;;;;;;42.00;20.33;;;-1.30;99.90;;;;;;7595026;19;20048;-72
2023/01/19 07:31:09;;;;;;;41.40;21.35;;;-1.30;99.90;;;;;;7591656;19;20010;-72
2023/01/19 07:33:42;;;;;;;44.30;19.20;;;-1.30;99.90;;;;;;7599720;19;20014;-73
2023/01/19 07:36:14;;;;;;;41.08;18.80;;;-1.30;99.90;;;;;;7602667;19;20535;-71
2023/01/19 07:38:46;;;;;;;37.60;19.38;;;-1.10;99.90;;;;;;7611492;19;22626;-71
2023/01/19 07:41:19;;;;;;;37.60;19.33;;;-0.80;99.90;;;;;;7580175;19;20073;-72
2023/01/19 07:43:51;;;;;;;37.23;19.47;;;-0.90;99.90;;;;;;7588886;19;20025;-71
2023/01/19 07:46:23;;;;;;;34.65;18.42;;;-0.90;99.90;;;;;;7595912;19;20030;-75
2023/01/19 07:48:55;;;;;;;36.10;18.95;;;-0.90;99.90;;;;;;7601427;19;20007;-75
2023/01/19 07:51:28;;;;;;;39.50;19.30;;;-1.10;99.90;;;;;;7599525;19;20019;-73
2023/01/19 07:54:00;;;;;;;40.03;18.92;;;-1.10;99.90;;;;;;7573145;19;20018;-74
2023/01/19 15:19:26;;;;;;;17.33;7.68;;;0.50;89.70;;;;;;7604445;19;20388;-70
2023/01/19 15:21:58;;;;;;;19.13;8.00;;;0.50;88.30;;;;;;7571003;19;20029;-70
2023/01/19 15:24:30;;;;;;;15.90;6.72;;;0.90;91.40;;;;;;7577570;19;20047;-69
2023/01/19 15:27:02;;;;;;;21.00;7.38;;;0.60;88.30;;;;;;7605386;19;20233;-71
2023/01/19 15:29:35;;;;;;;22.63;8.38;;;0.70;87.80;;;;;;7578390;19;20086;-70
2023/01/19 15:32:13;;;;;;;17.30;8.27;;;0.90;88.70;;;;;;7617285;19;20495;-70
2023/01/19 15:34:45;;;;;;;14.73;6.80;;;0.80;88.50;;;;;;7622719;19;20370;-72
2023/01/19 15:37:17;;;;;;;12.20;6.22;;;0.80;89.00;;;;;;7606877;19;20090;-71
2023/01/19 15:39:49;;;;;;;16.88;6.05;;;0.80;87.50;;;;;;7574589;19;21873;-70
2023/01/19 15:42:21;;;;;;;20.73;7.60;;;0.80;88.50;;;;;;7571880;19;21162;-68
2023/01/19 15:44:53;;;;;;;14.55;7.55;;;0.80;88.40;;;;;;7569339;19;20026;-69
2023/01/19 15:47:26;;;;;;;15.88;7.78;;;0.90;88.80;;;;;;7571781;19;20021;-70
2023/01/19 15:49:59;;;;;;;15.98;7.85;;;0.90;87.50;;;;;;7554323;19;21094;-69
2023/01/19 15:52:31;;;;;;;18.45;7.60;;;0.90;87.60;;;;;;7560321;19;20022;-68
2023/01/19 15:55:04;;;;;;;14.70;6.95;;;1.00;87.30;;;;;;7574748;19;20994;-69
2023/01/19 15:57:36;;;;;;;12.85;7.03;;;1.00;86.80;;;;;;7550129;19;21212;-69
2023/01/19 16:00:11;;;;;;;15.77;6.93;;;0.90;88.10;;;;;;7558053;19;20519;-70
2023/01/19 16:02:44;;;;;;;13.63;7.57;;;0.90;88.30;;;;;;7536497;19;20013;-69
2023/01/19 16:05:17;;;;;;;12.43;6.80;;;1.00;87.70;;;;;;7555688;19;20707;-68
2023/01/19 16:07:49;;;;;;;13.65;6.68;;;1.00;87.10;;;;;;7537654;19;21744;-70
2023/01/19 16:10:21;;;;;;;15.40;7.68;;;1.00;87.60;;;;;;7567157;19;20824;-68
2023/01/19 16:12:54;;;;;;;14.68;7.82;;;0.90;90.20;;;;;;7531062;19;20046;-68
2023/01/19 16:15:26;;;;;;;15.27;7.93;;;1.00;88.80;;;;;;7530848;19;20309;-69
2023/01/19 16:17:58;;;;;;;16.25;8.15;;;0.90;88.10;;;;;;7506911;19;21875;-69
2023/01/19 16:20:31;;;;;;;18.02;8.20;;;0.90;89.90;;;;;;7535648;19;21650;-69
2023/01/19 16:23:04;;;;;;;15.90;8.50;;;0.90;87.40;;;;;;7554189;19;21421;-69
2023/01/19 16:25:59;;;;;;;14.25;6.95;;;0.90;89.20;;;;;;7521635;19;22939;-70
2023/01/19 16:28:31;;;;;;;13.38;7.65;;;0.90;89.10;;;;;;7540721;19;22309;-69
2023/01/19 16:31:03;;;;;;;11.75;7.10;;;0.90;88.90;;;;;;7505371;19;22686;-69
2023/01/19 16:33:36;;;;;;;16.33;7.82;;;0.90;87.20;;;;;;7519838;19;22867;-70
2023/01/19 16:36:29;;;;;;;16.50;8.30;;;0.90;86.20;;;;;;7512844;19;22227;-69
2023/01/19 16:39:07;;;;;;;16.38;7.53;;;0.90;86.40;;;;;;7494973;19;24614;-68
2023/01/19 16:41:40;;;;;;;14.38;6.88;;;;;;;;;;7517247;19;22547;-69
2023/01/19 16:44:13;;;;;;;15.40;7.67;;;;;;;;;;7537129;19;23188;-68
2023/01/19 16:46:48;;;;;;;17.40;7.85;;;1.00;85.00;;;;;;7510567;19;23139;-67
2023/01/19 16:49:24;;;;;;;19.92;8.48;;;0.90;87.90;;;;;;7500811;19;23515;-68
2023/01/19 16:51:59;;;;;;;16.42;9.35;;;0.90;87.70;;;;;;7503860;19;23515;-70
2023/01/19 16:54:32;;;;;;;15.30;8.10;;;0.80;88.70;;;;;;7476088;19;23445;-71
2023/01/19 16:57:04;;;;;;;16.13;7.55;;;0.80;89.60;;;;;;7488760;19;21487;-69
2023/01/19 16:59:38;;;;;;;17.73;10.40;;;0.80;89.20;;;;;;7476298;19;23966;-69
2023/01/19 17:02:10;;;;;;;26.55;12.05;;;0.80;87.60;;;;;;7559441;19;20045;-68
2023/01/19 17:04:43;;;;;;;20.92;12.57;;;0.80;88.90;;;;;;7594492;19;20042;-71
2023/01/19 17:07:15;;;;;;;23.50;12.52;;;0.80;87.70;;;;;;7590151;19;20022;-69
2023/01/19 17:09:50;;;;;;;17.20;8.75;;;0.80;89.30;;;;;;7530225;19;21500;-69
2023/01/19 17:12:23;;;;;;;15.82;7.32;;;0.80;87.30;;;;;;7516075;19;20024;-69
2023/01/19 17:14:55;;;;;;;13.90;7.25;;;0.80;88.90;;;;;;7556804;19;20481;-69
2023/01/19 17:17:27;;;;;;;13.88;8.20;;;0.80;87.60;;;;;;7573748;19;20049;-69
2023/01/19 17:20:00;;;;;;;17.50;10.18;;;0.70;89.60;;;;;;7564574;19;20014;-69
2023/01/19 17:22:32;;;;;;;23.20;10.40;;;0.70;89.10;;;;;;7558685;19;20141;-71
2023/01/19 17:25:05;;;;;;;22.02;11.27;;;0.80;88.30;;;;;;7553627;19;23670;-71
2023/01/19 17:27:37;;;;;;;15.40;8.40;;;0.70;87.20;;;;;;7571208;19;20048;-69
2023/01/19 17:30:10;;;;;;;15.98;8.10;;;0.70;87.60;;;;;;7548867;19;21271;-70
2023/01/19 17:32:43;;;;;;;15.73;9.00;;;0.70;87.20;;;;;;7523129;19;20889;-70
2023/01/19 17:35:15;;;;;;;21.70;8.10;;;0.70;87.70;;;;;;7569838;19;20090;-71
2023/01/19 17:37:52;;;;;;;20.85;12.23;;;0.70;88.50;;;;;;7578925;19;20049;-71
2023/01/19 17:40:24;;;;;;;23.35;12.85;;;0.70;87.50;;;;;;7567832;19;20515;-71
2023/01/19 17:42:57;;;;;;;23.23;11.27;;;0.70;87.80;;;;;;7569583;19;20411;-71
2023/01/19 17:45:29;;;;;;;21.15;10.20;;;0.70;86.60;;;;;;7590050;19;20059;-71
2023/01/19 17:48:04;;;;;;;23.33;10.60;;;0.60;86.80;;;;;;7599907;19;20289;-71
2023/01/19 17:50:37;;;;;;;26.08;12.63;;;0.70;88.00;;;;;;7596719;19;20022;-72
2023/01/19 17:53:09;;;;;;;28.47;13.57;;;0.60;87.90;;;;;;7551650;19;20046;-70
2023/01/19 17:55:41;;;;;;;29.50;13.70;;;0.60;88.20;;;;;;7587049;19;20010;-72
2023/01/19 17:58:15;;;;;;;26.23;13.95;;;0.60;87.40;;;;;;7587518;19;20022;-71
2023/01/19 18:00:47;;;;;;;27.27;13.15;;;0.60;88.20;;;;;;7557680;19;20022;-71
2023/01/19 18:03:19;;;;;;;24.83;11.70;;;0.50;89.10;;;;;;7572136;19;20010;-71
2023/01/19 18:05:54;;;;;;;23.33;12.23;;;0.50;90.00;;;;;;7557054;19;20367;-70
2023/01/19 18:08:28;;;;;;;26.13;10.88;;;0.50;89.90;;;;;;7568538;19;21333;-72
2023/01/19 18:11:01;;;;;;;23.70;11.18;;;0.50;89.50;;;;;;7573651;19;20032;-72
2023/01/19 18:13:33;;;;;;;28.58;12.57;;;0.50;89.20;;;;;;7544366;19;20030;-70
2023/01/19 18:16:15;;;;;;;26.60;12.88;;;0.50;88.30;;;;;;7557616;19;20056;-71
2023/01/19 18:18:48;;;;;;;28.52;13.90;;;0.50;89.10;;;;;;7551882;19;20044;-72
2023/01/19 18:21:22;;;;;;;27.02;14.02;;;0.50;88.40;;;;;;7558718;19;20025;-72
2023/01/19 18:24:01;;;;;;;29.02;13.05;;;0.50;89.70;;;;;;7571321;19;20011;-71
2023/01/19 18:26:34;;;;;;;28.02;12.70;;;0.50;90.10;;;;;;7572458;19;21528;-71
2023/01/19 18:29:06;;;;;;;34.35;15.82;;;0.40;89.00;;;;;;7576695;19;20010;-72
2023/01/19 18:31:38;;;;;;;29.70;14.53;;;0.40;88.80;;;;;;7550315;19;20585;-71
2023/01/19 18:34:10;;;;;;;22.52;11.60;;;0.40;89.40;;;;;;7581040;19;20259;-71
2023/01/19 18:36:43;;;;;;;23.10;12.63;;;0.40;89.20;;;;;;7562694;19;20022;-72
2023/01/19 18:39:15;;;;;;;20.30;10.97;;;0.50;89.80;;;;;;7566632;19;20026;-71
2023/01/19 18:41:47;;;;;;;22.95;11.68;;;0.50;88.70;;;;;;7567185;19;20899;-72
2023/01/19 18:44:20;;;;;;;19.58;10.10;;;0.50;90.00;;;;;;7541089;19;20013;-72
2023/01/19 18:46:55;;;;;;;27.23;12.73;;;0.50;90.40;;;;;;7525534;19;20010;-71
2023/01/19 18:49:28;;;;;;;21.92;12.65;;;0.50;90.50;;;;;;7566075;19;20042;-71
2023/01/19 18:52:02;;;;;;;27.40;13.80;;;0.50;90.00;;;;;;7559330;19;20011;-70
2023/01/19 18:54:34;;;;;;;25.00;13.73;;;0.50;90.20;;;;;;7557822;19;20011;-72
2023/01/19 18:57:07;;;;;;;31.90;16.00;;;0.50;90.60;;;;;;7588920;19;21196;-71
2023/01/19 18:59:42;;;;;;;38.03;17.95;;;0.40;90.20;;;;;;7538880;19;20015;-71
2023/01/19 19:02:15;;;;;;;35.58;16.63;;;0.40;90.40;;;;;;7541065;19;21196;-71
2023/01/19 19:04:48;;;;;;;24.13;13.20;;;0.40;90.70;;;;;;7565505;19;20027;-72
2023/01/19 19:07:20;;;;;;;31.02;14.30;;;0.40;90.20;;;;;;7535032;19;21401;-72
2023/01/19 19:09:52;;;;;;;21.00;12.48;;;0.50;89.50;;;;;;7578722;19;20003;-71
2023/01/19 19:12:25;;;;;;;22.52;13.57;;;0.60;88.60;;;;;;7579441;19;20014;-71
2023/01/19 19:14:57;;;;;;;27.75;14.02;;;0.60;88.50;;;;;;7551461;19;20030;-71
2023/01/19 19:17:30;;;;;;;25.58;13.07;;;0.60;89.30;;;;;;7572958;19;20018;-72
2023/01/19 19:20:02;;;;;;;23.95;13.85;;;0.50;90.80;;;;;;7569980;19;20014;-71
2023/01/19 19:22:35;;;;;;;28.45;14.60;;;0.40;91.40;;;;;;7560812;19;20014;-71
2023/01/19 19:25:08;;;;;;;34.40;14.73;;;0.40;91.40;;;;;;7570098;19;20957;-72
2023/01/19 19:27:44;;;;;;;31.40;15.50;;;0.40;91.30;;;;;;7576204;19;20387;-70
2023/01/19 19:30:16;;;;;;;37.75;16.60;;;0.40;91.70;;;;;;7570775;19;20044;-72
2023/01/19 19:32:53;;;;;;;34.70;14.65;;;0.40;91.30;;;;;;7567223;19;20018;-72
2023/01/19 19:35:25;;;;;;;20.63;11.82;;;0.40;91.30;;;;;;7558874;19;20967;-70
2023/01/19 19:37:58;;;;;;;33.97;16.23;;;0.50;91.50;;;;;;7565747;19;20130;-71
2023/01/19 19:40:31;;;;;;;;;;;0.40;90.90;;;;;;7568493;19;20063;-71
2023/01/19 19:43:03;;;;;;;23.88;13.07;;;0.40;91.40;;;;;;7570462;19;19957;-71
2023/01/19 19:45:37;;;;;;;25.67;11.80;;;0.50;91.70;;;;;;7543367;19;20021;-69
2023/01/19 19:48:09;;;;;;;20.70;11.30;;;0.40;92.20;;;;;;7544609;19;20664;-70
2023/01/19 19:50:41;;;;;;;22.10;11.75;;;0.40;92.80;;;;;;7566043;19;20691;-69
2023/01/19 19:53:13;;;;;;;25.38;12.07;;;0.40;92.40;;;;;;7536168;19;20010;-70
2023/01/19 19:55:56;;;;;;;25.73;12.63;;;0.40;92.80;;;;;;7510622;19;20687;-71
2023/01/19 19:58:29;;;;;;;24.92;12.80;;;0.30;92.50;;;;;;7547602;19;20007;-71
2023/01/19 20:01:13;;;;;;;25.13;13.25;;;0.30;92.90;;;;;;7546730;19;20014;-70
2023/01/19 20:03:47;;;;;;;19.88;12.27;;;0.30;93.10;;;;;;7549227;19;20022;-69
2023/01/19 20:06:21;;;;;;;22.67;12.88;;;0.20;93.10;;;;;;7556482;19;20437;-72
2023/01/19 20:08:55;;;;;;;27.95;13.93;;;0.20;93.20;;;;;;7540529;19;20482;-70
2023/01/19 20:11:28;;;;;;;25.90;14.23;;;0.20;93.40;;;;;;7543683;19;22730;-70
2023/01/19 20:14:05;;;;;;;25.00;13.73;;;0.20;92.80;;;;;;7500489;19;20346;-70
2023/01/19 20:16:38;;;;;;;27.88;14.98;;;0.20;93.40;;;;;;6506352;19;10000380;-71
2023/01/19 20:19:10;;;;;;;26.27;14.07;;;0.20;93.50;;;;;;7517091;19;20743;-70
2023/01/19 20:21:42;;;;;;;27.40;13.48;;;0.10;93.70;;;;;;7522761;19;21327;-72
2023/01/19 20:24:17;;;;;;;24.83;13.88;;;0.10;94.60;;;;;;7535940;19;22794;-71
2023/01/19 20:26:52;;;;;;;22.63;12.75;;;0.10;94.70;;;;;;7529739;19;21782;-71
2023/01/19 20:29:24;;;;;;;25.67;13.15;;;0.10;94.60;;;;;;7528745;19;23449;-72
2023/01/19 20:31:57;;;;;;;24.42;13.85;;;0.10;94.50;;;;;;7554346;19;23297;-73
2023/01/19 20:34:31;;;;;;;30.08;14.20;;;0.10;94.70;;;;;;7528132;19;23493;-71
2023/01/19 20:37:05;;;;;;;23.90;13.02;;;0.10;94.80;;;;;;7537625;19;23070;-71
2023/01/19 20:39:37;;;;;;;26.98;14.63;;;0.00;94.80;;;;;;7550447;19;23178;-71
2023/01/19 20:42:12;;;;;;;24.67;14.55;;;0.00;95.10;;;;;;7545682;19;22221;-70
2023/01/19 20:44:44;;;;;;;28.05;14.18;;;0.00;95.20;;;;;;7554419;19;22329;-71
2023/01/19 20:47:17;;;;;;;24.88;14.13;;;-0.10;95.10;;;;;;7539642;19;22844;-71
2023/01/19 20:49:49;;;;;;;27.35;14.55;;;-0.10;95.50;;;;;;7553823;19;20011;-71
